Airfield :
LOGIN :

Register | Disclaimer

   EN    FR    IT 

 










Legend :    VFR   Marginal VFR   IFR   Intensive IFR   Very Intensive IFR
Visi :
Ceiling :
>= 8 km
>= 3000ft
5 to 8 km
1000 to 3000 ft
1500m to 5 km
500 to 1000 ft
800 to 1500m
200 to 500 ft
< 800m
< 200 ft
Symbols :   Thunderstorms  Fog  Heavy snow  Heavy precipitations  Wind > 20 kt
SIGMETs :     Misc.  Thunderstorms  Icing  Turbulence  Mountain Waves  Volcanic Ashes






- Airport Elevation : 1487 ft
- IATA code : MUC


EDDM - München Franz Josef Strauss

CURRENT METAR :
  • 241150Z AUTO 30008KT CAVOK 08/00 Q1005 NOSIG

EXPIRED METARs :
  • 241120Z AUTO 27006KT 230V320 9999 FEW029 08/01 Q1006 NOSIG
  • 241050Z AUTO 26009KT 230V290 9999 FEW049 08/01 Q1006 NOSIG
  • 241020Z AUTO 27008KT 240V310 CAVOK 08/01 Q1005 NOSIG
  • 240950Z AUTO 28009KT 250V310 CAVOK 07/01 Q1005 NOSIG
  • 240920Z AUTO 24006KT 210V280 CAVOK 05/01 Q1005 NOSIG
  • 240850Z AUTO 25004KT 220V290 CAVOK 04/00 Q1004 NOSIG
  • 240820Z AUTO 22004KT 180V250 CAVOK 03/00 Q1004 NOSIG
  • 240750Z AUTO VRB02KT CAVOK 02/00 Q1003 BECMG 21005KT
  • 240720Z AUTO 12004KT 090V150 CAVOK 01/M01 Q1003 NOSIG

TAF TAF EDDM
Valid from the 24 at 12:00 until the 25 at 18:00 UTC


241100Z 2412/2518 27008KT 9999 FEW030
BECMG 2413/2414 06005KT
BECMG 2420/2421 22005KT
BECMG 2505/2507 10005KT
PROB30
TEMPO 2507/2514 SHRAGS SCT020CB



MET'MAP, your aeronautical weather chart ! - Copyright ORBIFLY December 2007 - Disclaimer

ORBIFLY MET'MAP TEAM :

Programming & Development : Alexandra Zaïnal
Original concept : Baudouin d'Aumeries
Technical & hardware support : Manuel Goepfert
Assistance : Marc-Olivier Méhu




SOURCES & CREDITS :

   NOAA